createdAt,value
2017-11-18T00:00:38.443Z,19.87
2017-11-18T00:03:06.204Z,22.17
2017-11-18T00:05:33.818Z,19.63
2017-11-18T00:08:01.411Z,19.80
2017-11-18T00:10:28.974Z,20.47
2017-11-18T00:12:56.572Z,17.67
2017-11-18T00:15:24.232Z,18.50
2017-11-18T00:17:53.532Z,19.27
2017-11-18T00:20:21.129Z,20.20
2017-11-18T00:22:48.690Z,20.40
2017-11-18T00:25:16.253Z,22.87
2017-11-18T00:27:43.834Z,19.10
2017-11-18T00:30:11.388Z,19.53
2017-11-18T00:32:38.953Z,18.70
2017-11-18T00:35:06.594Z,19.20
2017-11-18T00:37:34.217Z,18.40
2017-11-18T00:40:01.818Z,18.30
2017-11-18T00:42:29.367Z,22.70
2017-11-18T00:44:56.944Z,18.17
2017-11-18T00:47:24.573Z,18.40
2017-11-18T00:49:52.125Z,17.13
2017-11-18T00:52:19.698Z,20.87
2017-11-18T00:54:47.290Z,20.13
2017-11-18T00:57:15.130Z,20.30
2017-11-18T00:59:42.734Z,21.43
2017-11-18T01:02:10.311Z,19.80
2017-11-18T01:04:37.866Z,17.00
2017-11-18T01:07:05.644Z,19.33
2017-11-18T01:09:33.209Z,18.90
2017-11-18T01:12:00.771Z,18.53
2017-11-18T01:14:28.391Z,17.23
2017-11-18T01:16:55.955Z,18.97
2017-11-18T01:19:23.519Z,19.47
2017-11-18T01:21:51.116Z,19.87
2017-11-18T01:24:18.665Z,19.93
2017-11-18T01:26:46.231Z,18.90
2017-11-18T01:29:13.877Z,20.47
2017-11-18T01:31:41.443Z,21.63
2017-11-18T01:34:09.142Z,19.13
2017-11-18T01:36:36.727Z,19.37
2017-11-18T01:39:04.339Z,20.30
2017-11-18T01:41:32.393Z,18.57
2017-11-18T01:43:59.967Z,19.40
2017-11-18T01:46:27.549Z,21.30
2017-11-18T01:48:55.136Z,19.57
2017-11-18T01:51:22.724Z,18.27
2017-11-18T01:53:50.290Z,19.17
2017-11-18T01:56:17.869Z,19.90
2017-11-18T01:58:45.471Z,19.80
2017-11-18T02:01:13.555Z,17.17
2017-11-18T02:03:41.124Z,18.00
2017-11-18T02:06:08.991Z,19.13
2017-11-18T02:08:36.567Z,19.70
2017-11-18T02:11:04.143Z,18.93
2017-11-18T02:13:31.740Z,17.10
2017-11-18T02:15:59.607Z,17.80
2017-11-18T02:18:27.187Z,17.00
2017-11-18T02:20:54.795Z,19.87
2017-11-18T02:23:22.383Z,17.30
2017-11-18T02:25:49.991Z,16.30
2017-11-18T02:28:17.598Z,19.20
2017-11-18T02:30:45.167Z,17.40
2017-11-18T02:33:12.749Z,18.03
2017-11-18T02:35:40.343Z,17.17
2017-11-18T02:38:07.958Z,18.80
2017-11-18T02:40:35.588Z,18.83
2017-11-18T02:43:03.175Z,18.90
2017-11-18T02:45:30.757Z,18.63
2017-11-18T02:47:58.424Z,21.20
2017-11-18T02:50:26.403Z,20.07
2017-11-18T02:52:54.358Z,19.43
2017-11-18T02:55:22.466Z,18.33
2017-11-18T02:57:50.060Z,19.67
2017-11-18T03:00:17.711Z,20.37
2017-11-18T03:02:45.325Z,20.30
2017-11-18T03:05:13.000Z,16.77
2017-11-18T03:07:40.971Z,17.37
2017-11-18T03:10:08.937Z,18.40
2017-11-18T03:12:36.508Z,17.60
2017-11-18T03:15:04.139Z,17.00
2017-11-18T03:17:31.774Z,18.07
2017-11-18T03:19:59.346Z,17.80
2017-11-18T03:22:28.337Z,18.33
2017-11-18T03:24:56.338Z,17.83
2017-11-18T03:27:23.945Z,18.53
2017-11-18T03:29:51.979Z,16.83
2017-11-18T03:32:20.209Z,16.37
2017-11-18T03:34:47.792Z,16.87
2017-11-18T03:37:15.358Z,17.00
2017-11-18T03:39:42.983Z,18.63
2017-11-18T03:42:10.620Z,19.83
2017-11-18T03:44:38.221Z,18.97
2017-11-18T03:47:05.877Z,18.93
2017-11-18T03:49:33.476Z,18.50
2017-11-18T03:52:03.439Z,15.93
2017-11-18T03:54:31.035Z,19.20
2017-11-18T03:56:58.631Z,16.27
2017-11-18T03:59:26.229Z,17.50
2017-11-18T04:01:53.831Z,17.77
2017-11-18T04:04:22.143Z,18.77
2017-11-18T04:06:49.697Z,17.43
2017-11-18T04:09:17.290Z,18.90
2017-11-18T04:11:44.849Z,18.03
2017-11-18T04:14:12.454Z,16.53
2017-11-18T04:16:40.034Z,19.17
2017-11-18T04:19:07.684Z,20.97
2017-11-18T04:21:35.273Z,19.47
2017-11-18T04:24:02.876Z,19.97
2017-11-18T04:26:30.422Z,16.60
2017-11-18T04:28:57.992Z,15.83
2017-11-18T04:31:26.402Z,16.40
2017-11-18T04:33:53.953Z,16.97
2017-11-18T04:36:21.538Z,17.07
2017-11-18T04:38:49.124Z,18.20
2017-11-18T04:41:16.676Z,18.90
2017-11-18T04:43:44.225Z,14.33
2017-11-18T04:46:11.814Z,14.83
2017-11-18T04:48:39.397Z,14.10
2017-11-18T04:51:06.960Z,15.77
2017-11-18T04:53:34.532Z,13.60
2017-11-18T04:56:02.123Z,18.60
2017-11-18T04:58:29.697Z,18.80
2017-11-18T05:00:57.278Z,17.20
2017-11-18T05:03:24.860Z,15.90
2017-11-18T05:05:52.423Z,18.13
2017-11-18T05:08:20.555Z,20.80
2017-11-18T05:10:48.211Z,16.90
2017-11-18T05:13:15.819Z,17.27
2017-11-18T05:15:43.403Z,17.17
2017-11-18T05:18:10.991Z,15.60
2017-11-18T05:20:38.565Z,17.23
2017-11-18T05:23:06.112Z,20.37
2017-11-18T05:25:33.744Z,18.90
2017-11-18T05:28:01.330Z,24.53
2017-11-18T05:30:29.859Z,18.97
2017-11-18T05:32:57.414Z,17.33
2017-11-18T05:35:25.105Z,18.77
2017-11-18T05:37:52.768Z,18.23
2017-11-18T05:40:20.337Z,17.90
2017-11-18T05:42:47.955Z,17.50
2017-11-18T05:45:15.511Z,19.63
2017-11-18T05:50:14.930Z,19.07
2017-11-18T05:52:42.485Z,17.33
2017-11-18T05:55:10.061Z,21.87
2017-11-18T05:57:37.666Z,18.73
2017-11-18T06:00:05.503Z,16.83
2017-11-18T06:02:33.128Z,18.10
2017-11-18T06:05:00.724Z,17.53
2017-11-18T06:07:29.068Z,19.27
2017-11-18T06:09:56.635Z,23.67
2017-11-18T06:12:24.238Z,20.33
2017-11-18T06:14:51.819Z,20.97
2017-11-18T06:17:19.429Z,20.63
2017-11-18T06:19:47.047Z,21.70
2017-11-18T06:22:14.606Z,20.47
2017-11-18T06:24:42.216Z,19.13
2017-11-18T06:27:10.119Z,21.07
2017-11-18T06:29:38.766Z,20.47
2017-11-18T06:32:06.312Z,18.73
2017-11-18T06:34:33.889Z,18.03
2017-11-18T06:37:01.769Z,16.43
2017-11-18T06:39:29.339Z,20.23
2017-11-18T06:41:56.915Z,17.00
2017-11-18T06:44:24.499Z,19.03
2017-11-18T06:46:52.054Z,16.63
2017-11-18T06:49:19.608Z,20.20
2017-11-18T06:51:47.200Z,18.67
2017-11-18T06:54:14.768Z,19.77
2017-11-18T06:56:42.327Z,17.77
2017-11-18T06:59:09.959Z,18.23
2017-11-18T07:01:37.594Z,19.70
2017-11-18T07:04:05.203Z,17.77
2017-11-18T07:06:32.824Z,17.87
2017-11-18T07:09:00.388Z,17.40
2017-11-18T07:11:27.978Z,17.90
2017-11-18T07:13:56.660Z,17.70
2017-11-18T07:16:24.219Z,17.00
2017-11-18T07:18:51.807Z,18.17
2017-11-18T07:21:19.437Z,17.43
2017-11-18T07:23:47.094Z,16.90
2017-11-18T07:26:14.832Z,16.33
2017-11-18T07:28:42.606Z,17.40
2017-11-18T07:31:11.049Z,17.57
2017-11-18T07:33:38.672Z,15.60
2017-11-18T07:36:06.308Z,14.80
2017-11-18T07:38:34.633Z,13.40
2017-11-18T07:41:03.889Z,14.90
2017-11-18T07:43:31.524Z,14.73
2017-11-18T07:45:59.346Z,15.40
2017-11-18T07:48:27.044Z,13.87
2017-11-18T07:50:54.593Z,16.10
2017-11-18T07:53:22.271Z,13.77
2017-11-18T07:55:51.347Z,16.77
2017-11-18T07:58:20.908Z,13.03
2017-11-18T08:00:48.532Z,13.30
2017-11-18T08:03:16.360Z,14.20
2017-11-18T08:05:43.912Z,12.77
2017-11-18T08:08:11.493Z,12.50
2017-11-18T08:10:39.080Z,12.00
2017-11-18T08:13:06.661Z,9.67
2017-11-18T08:15:34.263Z,10.40
2017-11-18T08:18:01.855Z,10.23
2017-11-18T08:20:30.471Z,9.80
2017-11-18T08:22:58.027Z,8.57
2017-11-18T08:25:25.692Z,9.83
2017-11-18T08:27:53.264Z,9.27
2017-11-18T08:30:20.809Z,10.33
2017-11-18T08:32:48.365Z,11.17
2017-11-18T08:35:15.998Z,10.80
2017-11-18T08:37:43.564Z,12.07
2017-11-18T08:40:11.155Z,11.73
2017-11-18T08:42:38.755Z,12.53
2017-11-18T08:45:06.652Z,12.10
2017-11-18T08:47:34.818Z,11.67
2017-11-18T08:50:02.390Z,12.47
2017-11-18T08:52:30.274Z,11.03
2017-11-18T08:54:57.885Z,12.77
2017-11-18T08:57:25.468Z,12.47
2017-11-18T08:59:53.849Z,13.30
2017-11-18T09:02:21.423Z,14.37
2017-11-18T09:04:48.985Z,12.90
2017-11-18T09:07:16.585Z,12.70
2017-11-18T09:09:44.193Z,12.47
2017-11-18T09:12:11.781Z,16.47
2017-11-18T09:14:39.331Z,13.70
2017-11-18T09:17:07.009Z,12.57
2017-11-18T09:19:34.603Z,12.60
2017-11-18T09:22:02.164Z,12.80
2017-11-18T09:24:29.734Z,13.00
2017-11-18T09:26:57.344Z,12.10
2017-11-18T09:29:24.900Z,12.97
2017-11-18T09:31:52.492Z,12.17
2017-11-18T09:34:20.100Z,11.37
2017-11-18T09:36:47.713Z,13.30
2017-11-18T09:39:15.274Z,21.23
2017-11-18T09:41:42.861Z,16.93
2017-11-18T09:44:10.452Z,13.03
2017-11-18T09:46:38.028Z,16.17
2017-11-18T09:49:05.686Z,16.63
2017-11-18T09:51:33.252Z,14.27
2017-11-18T09:54:00.819Z,13.57
2017-11-18T09:56:28.440Z,12.10
2017-11-18T09:58:55.989Z,11.17
2017-11-18T10:01:23.700Z,12.10
2017-11-18T10:03:51.325Z,12.00
2017-11-18T10:06:19.037Z,11.30
2017-11-18T10:08:46.625Z,12.40
2017-11-18T10:11:14.283Z,12.70
2017-11-18T10:13:41.860Z,13.37
2017-11-18T10:16:09.449Z,14.00
2017-11-18T10:18:37.028Z,14.80
2017-11-18T10:21:04.740Z,12.80
2017-11-18T10:23:32.364Z,11.03
2017-11-18T10:25:59.946Z,11.50
2017-11-18T10:28:27.557Z,15.20
2017-11-18T10:30:55.115Z,12.33
2017-11-18T10:33:23.076Z,15.10
2017-11-18T10:35:50.656Z,11.80
2017-11-18T10:38:18.228Z,11.97
2017-11-18T10:40:46.280Z,13.60
2017-11-18T10:43:13.861Z,13.67
2017-11-18T10:45:41.469Z,15.53
2017-11-18T10:48:09.126Z,16.43
2017-11-18T10:50:36.698Z,14.13
2017-11-18T10:53:04.304Z,15.97
2017-11-18T10:55:32.432Z,16.23
2017-11-18T10:57:59.984Z,18.50
2017-11-18T11:00:27.596Z,16.50
2017-11-18T11:02:55.222Z,17.97
2017-11-18T11:05:22.842Z,21.27
2017-11-18T11:07:53.090Z,17.43
2017-11-18T11:10:20.802Z,17.03
2017-11-18T11:12:48.362Z,19.20
2017-11-18T11:15:16.008Z,22.27
2017-11-18T11:17:43.586Z,18.47
2017-11-18T11:20:11.220Z,21.23
2017-11-18T11:22:38.775Z,19.67
2017-11-18T11:25:06.401Z,17.70
2017-11-18T11:27:33.980Z,19.47
2017-11-18T11:30:01.602Z,22.63
2017-11-18T11:32:29.219Z,21.97
2017-11-18T11:34:56.784Z,21.27
2017-11-18T11:37:24.407Z,23.30
2017-11-18T11:39:52.005Z,26.90
2017-11-18T11:42:19.585Z,24.20
2017-11-18T11:44:47.427Z,26.80
2017-11-18T11:47:15.207Z,28.80
2017-11-18T11:49:43.427Z,30.27
2017-11-18T11:52:11.007Z,28.00
2017-11-18T11:54:39.926Z,29.40
2017-11-18T11:57:07.621Z,28.70
2017-11-18T11:59:35.196Z,28.57
2017-11-18T12:02:02.770Z,28.20
2017-11-18T12:04:30.354Z,27.10
2017-11-18T12:06:57.911Z,28.73
2017-11-18T12:09:25.605Z,29.20
2017-11-18T12:11:53.154Z,32.60
2017-11-18T12:14:20.700Z,36.73
2017-11-18T12:16:48.313Z,30.90
2017-11-18T12:19:15.875Z,35.50
2017-11-18T12:21:43.431Z,32.63
2017-11-18T12:24:11.014Z,32.17
2017-11-18T12:26:38.610Z,37.10
2017-11-18T12:29:06.302Z,37.90
2017-11-18T12:31:33.912Z,37.50
2017-11-18T12:34:01.509Z,38.50
2017-11-18T12:36:29.100Z,39.70
2017-11-18T12:38:56.681Z,37.40
2017-11-18T12:41:24.308Z,40.70
2017-11-18T12:43:51.889Z,39.00
2017-11-18T12:46:19.450Z,40.43
2017-11-18T12:48:47.054Z,38.70
2017-11-18T12:51:14.621Z,38.37
2017-11-18T12:53:42.380Z,38.93
2017-11-18T12:56:09.985Z,38.77
2017-11-18T12:58:37.628Z,39.00
2017-11-18T13:01:05.227Z,39.90
2017-11-18T13:03:33.059Z,37.80
2017-11-18T13:06:00.670Z,36.03
2017-11-18T13:08:28.285Z,35.90
2017-11-18T13:10:56.077Z,36.10
2017-11-18T13:13:23.662Z,35.77
2017-11-18T13:15:51.222Z,36.20
2017-11-18T13:18:18.766Z,34.10
2017-11-18T13:20:46.351Z,30.20
2017-11-18T13:23:13.921Z,39.47
2017-11-18T13:25:42.485Z,28.27
2017-11-18T13:28:10.110Z,29.70
2017-11-18T13:30:37.695Z,28.17
2017-11-18T13:33:05.304Z,24.97
2017-11-18T13:35:32.902Z,27.60
2017-11-18T13:38:00.493Z,25.40
2017-11-18T13:40:28.055Z,25.60
2017-11-18T13:42:55.672Z,22.70
2017-11-18T13:45:23.490Z,22.53
2017-11-18T13:47:51.068Z,21.80
2017-11-18T13:50:18.699Z,22.10
2017-11-18T13:53:09.135Z,22.43
2017-11-18T13:55:36.731Z,22.77
2017-11-18T13:58:04.319Z,21.13
2017-11-18T14:00:33.772Z,21.20
2017-11-18T14:03:01.334Z,22.30
2017-11-18T14:05:28.983Z,21.50
2017-11-18T14:07:56.546Z,22.60
2017-11-18T14:10:24.122Z,23.67
2017-11-18T14:12:51.755Z,25.20
2017-11-18T14:15:19.434Z,25.90
2017-11-18T14:17:47.070Z,24.00
2017-11-18T14:20:14.695Z,24.13
2017-11-18T14:22:42.289Z,23.40
2017-11-18T14:25:10.309Z,24.17
2017-11-18T14:27:37.953Z,23.23
2017-11-18T14:30:05.519Z,23.90
2017-11-18T14:32:33.127Z,26.07
2017-11-18T14:35:00.713Z,26.00
2017-11-18T14:37:28.297Z,31.33
2017-11-18T14:39:55.888Z,33.50
2017-11-18T14:42:23.503Z,33.37
2017-11-18T14:44:51.117Z,35.83
2017-11-18T14:47:18.847Z,37.93
2017-11-18T14:49:46.790Z,35.40
2017-11-18T14:52:14.405Z,34.53
2017-11-18T14:54:42.052Z,36.70
2017-11-18T14:57:09.872Z,33.00
2017-11-18T14:59:37.498Z,31.70
2017-11-18T15:02:08.176Z,35.37
2017-11-18T15:04:37.430Z,33.73
2017-11-18T15:07:05.317Z,30.63
2017-11-18T15:09:33.090Z,31.57
2017-11-18T15:12:00.714Z,29.77
2017-11-18T15:17:38.824Z,31.67
2017-11-18T15:20:11.775Z,30.00
2017-11-18T15:25:52.320Z,30.63
2017-11-18T15:37:23.398Z,28.90
2017-11-18T15:39:51.078Z,28.90
2017-11-18T15:42:18.913Z,28.03
2017-11-18T15:44:50.096Z,30.23
2017-11-18T15:50:26.233Z,28.13
2017-11-18T15:53:03.188Z,28.40
2017-11-18T15:58:49.084Z,28.20
2017-11-18T16:01:22.436Z,24.93
2017-11-18T16:03:51.862Z,21.37
2017-11-18T16:06:21.104Z,22.93
2017-11-18T16:08:48.715Z,23.67
2017-11-18T16:11:16.340Z,21.53
2017-11-18T16:13:43.925Z,19.73
2017-11-18T16:16:11.655Z,20.97
2017-11-18T16:18:39.259Z,19.47
2017-11-18T16:21:06.845Z,23.20
2017-11-18T16:23:34.627Z,21.10
2017-11-18T16:26:02.260Z,19.93
2017-11-18T16:28:29.880Z,20.77
2017-11-18T16:30:57.492Z,21.23
2017-11-18T16:33:25.870Z,20.17
2017-11-18T16:35:53.468Z,19.93
2017-11-18T16:38:22.146Z,21.37
2017-11-18T16:40:49.964Z,18.60
2017-11-18T16:43:17.587Z,21.60
2017-11-18T16:45:45.197Z,22.70
2017-11-18T16:48:12.806Z,19.20
2017-11-18T16:50:40.414Z,19.30
2017-11-18T16:53:08.039Z,20.97
2017-11-18T16:55:35.621Z,18.40
2017-11-18T16:58:03.224Z,18.70
2017-11-18T17:00:30.822Z,19.37
2017-11-18T17:02:58.431Z,18.90
2017-11-18T17:05:26.244Z,18.80
2017-11-18T17:07:53.855Z,17.60
2017-11-18T17:10:21.428Z,18.90
2017-11-18T17:12:49.028Z,19.20
2017-11-18T17:15:16.647Z,15.53
2017-11-18T17:17:44.283Z,17.17
2017-11-18T17:20:11.897Z,18.50
2017-11-18T17:22:39.755Z,18.37
2017-11-18T17:25:07.344Z,17.67
2017-11-18T17:27:34.972Z,18.53
2017-11-18T17:30:02.553Z,19.20
2017-11-18T17:32:30.240Z,16.83
2017-11-18T17:34:57.905Z,16.67
2017-11-18T17:37:25.618Z,18.13
2017-11-18T17:39:53.200Z,17.47
2017-11-18T17:42:21.534Z,20.60
2017-11-18T17:44:49.137Z,19.20
2017-11-18T17:47:16.699Z,19.03
2017-11-18T17:49:44.318Z,33.00
2017-11-18T17:52:11.875Z,17.67
2017-11-18T17:54:39.429Z,17.03
2017-11-18T17:57:07.101Z,18.70
2017-11-18T17:59:34.673Z,18.27
2017-11-18T18:02:02.341Z,18.00
2017-11-18T18:04:29.983Z,18.37
2017-11-18T18:06:57.800Z,16.53
2017-11-18T18:09:25.423Z,15.13
2017-11-18T18:11:53.037Z,15.83
2017-11-18T18:14:20.717Z,17.00
2017-11-18T18:16:48.299Z,17.07
2017-11-18T18:19:15.884Z,14.67
2017-11-18T18:21:43.501Z,15.50
2017-11-18T18:24:11.089Z,15.63
2017-11-18T18:26:38.694Z,15.43
2017-11-18T18:29:06.514Z,13.67
2017-11-18T18:31:34.093Z,14.60
2017-11-18T18:34:01.698Z,13.60
2017-11-18T18:36:29.317Z,15.23
2017-11-18T18:38:56.926Z,12.20
2017-11-18T18:41:24.488Z,12.67
2017-11-18T18:43:52.126Z,12.57
2017-11-18T18:46:19.710Z,12.10
2017-11-18T18:48:47.274Z,12.60
2017-11-18T18:51:14.893Z,11.83
2017-11-18T18:53:42.474Z,13.77
2017-11-18T18:56:10.051Z,12.97
2017-11-18T18:58:37.651Z,11.93
2017-11-18T19:01:05.215Z,12.20
2017-11-18T19:03:45.303Z,12.80
2017-11-18T19:06:12.865Z,14.60
2017-11-18T19:08:40.434Z,12.67
2017-11-18T19:11:08.080Z,14.33
2017-11-18T19:13:35.647Z,13.07
2017-11-18T19:16:03.240Z,12.60
2017-11-18T19:18:30.861Z,13.60
2017-11-18T19:20:58.433Z,15.20
2017-11-18T19:23:26.020Z,18.40
2017-11-18T19:25:53.608Z,14.27
2017-11-18T19:28:21.169Z,16.20
2017-11-18T19:30:48.777Z,14.13
2017-11-18T19:33:16.381Z,14.30
2017-11-18T19:35:43.958Z,13.80
2017-11-18T19:38:11.645Z,14.57
2017-11-18T19:40:39.213Z,14.30
2017-11-18T19:43:07.255Z,12.70
2017-11-18T19:45:34.932Z,12.67
2017-11-18T19:48:02.518Z,12.50
2017-11-18T19:50:30.121Z,12.40
2017-11-18T19:52:57.708Z,13.80
2017-11-18T19:55:25.277Z,12.70
2017-11-18T19:57:53.736Z,13.50
2017-11-18T20:00:21.416Z,11.97
2017-11-18T20:05:39.416Z,13.63
2017-11-18T20:08:06.976Z,12.70
2017-11-18T20:10:34.558Z,13.47
2017-11-18T20:13:02.126Z,13.53
2017-11-18T20:15:29.874Z,13.43
2017-11-18T20:17:57.466Z,12.03
2017-11-18T20:20:25.051Z,12.50
2017-11-18T20:22:52.622Z,13.20
2017-11-18T20:25:20.225Z,11.87
2017-11-18T20:27:47.818Z,12.17
2017-11-18T20:30:15.393Z,12.97
2017-11-18T20:32:43.010Z,13.33
2017-11-18T20:35:10.721Z,13.70
2017-11-18T20:37:38.313Z,11.70
2017-11-18T20:40:05.904Z,12.30
2017-11-18T20:42:33.524Z,12.60
2017-11-18T20:45:01.081Z,10.47
2017-11-18T20:47:29.461Z,10.37
2017-11-18T20:49:57.033Z,11.53
2017-11-18T20:52:24.597Z,11.60
2017-11-18T20:54:52.253Z,12.20
2017-11-18T20:57:19.894Z,13.63
2017-11-18T20:59:47.445Z,14.10
2017-11-18T21:02:15.127Z,13.90
2017-11-18T21:04:42.785Z,12.80
2017-11-18T21:07:11.016Z,12.30
2017-11-18T21:09:38.619Z,12.40
2017-11-18T21:12:06.239Z,13.90
2017-11-18T21:14:33.850Z,12.13
2017-11-18T21:17:01.525Z,11.57
2017-11-18T21:19:29.278Z,11.27
2017-11-18T21:21:56.881Z,12.60
2017-11-18T21:24:24.805Z,12.70
2017-11-18T21:26:52.397Z,10.37
2017-11-18T21:29:19.979Z,12.57
2017-11-18T21:31:47.594Z,10.23
2017-11-18T21:34:15.162Z,12.10
2017-11-18T21:36:42.726Z,12.20
2017-11-18T21:39:10.828Z,11.23
2017-11-18T21:41:38.429Z,11.20
2017-11-18T21:44:06.050Z,11.00
2017-11-18T21:46:33.659Z,12.20
2017-11-18T21:49:01.259Z,10.80
2017-11-18T21:51:29.762Z,10.60
2017-11-18T21:53:57.520Z,11.40
2017-11-18T21:56:25.139Z,11.40
2017-11-18T21:58:52.735Z,12.27
2017-11-18T22:01:20.344Z,12.37
2017-11-18T22:03:47.939Z,10.67
2017-11-18T22:06:15.534Z,10.90
2017-11-18T22:08:43.110Z,11.60
2017-11-18T22:11:11.391Z,10.90
2017-11-18T22:13:38.970Z,11.20
2017-11-18T22:16:06.601Z,10.23
2017-11-18T22:18:34.192Z,9.83
2017-11-18T22:21:01.773Z,11.10
2017-11-18T22:23:29.335Z,11.77
2017-11-18T22:25:56.926Z,12.17
2017-11-18T22:28:24.518Z,12.23
2017-11-18T22:30:52.099Z,11.10
2017-11-18T22:33:19.781Z,10.70
2017-11-18T22:35:47.353Z,10.87
2017-11-18T22:38:14.980Z,10.93
2017-11-18T22:40:42.635Z,9.80
2017-11-18T22:43:10.360Z,11.47
2017-11-18T22:45:37.968Z,10.40
2017-11-18T22:48:05.676Z,10.33
2017-11-18T22:50:33.360Z,11.77
2017-11-18T22:53:00.930Z,10.90
2017-11-18T22:55:28.493Z,9.70
2017-11-18T22:57:56.071Z,9.53
2017-11-18T23:00:41.465Z,12.53
2017-11-18T23:03:09.552Z,10.53
2017-11-18T23:05:37.168Z,10.43
2017-11-18T23:08:04.775Z,10.20
2017-11-18T23:10:32.344Z,10.50
2017-11-18T23:13:02.867Z,9.67
2017-11-18T23:15:30.603Z,9.70
2017-11-18T23:17:58.156Z,10.20
2017-11-18T23:20:25.757Z,9.27
2017-11-18T23:22:53.388Z,9.13
2017-11-18T23:25:21.037Z,9.30
2017-11-18T23:27:48.585Z,9.13
2017-11-18T23:30:16.194Z,7.70
2017-11-18T23:32:43.776Z,8.33
2017-11-18T23:35:12.715Z,7.97
2017-11-18T23:37:40.323Z,9.23
2017-11-18T23:40:07.946Z,8.20
2017-11-18T23:42:35.498Z,7.57
2017-11-18T23:45:03.153Z,8.57
2017-11-18T23:47:30.728Z,9.40
2017-11-18T23:49:58.317Z,9.20
2017-11-18T23:52:25.851Z,8.20
2017-11-18T23:54:55.577Z,8.23
2017-11-18T23:57:23.217Z,8.77
2017-11-18T23:59:50.787Z,7.93
